createdAt,value
2023-02-19T00:00:17.510Z,100458.27
2023-02-19T00:03:08.658Z,100454.64
2023-02-19T00:05:39.371Z,100457.09
2023-02-19T00:08:10.027Z,100461.30
2023-02-19T00:10:40.744Z,100460.98
2023-02-19T00:13:11.342Z,100454.34
2023-02-19T00:15:42.061Z,100451.79
2023-02-19T00:18:12.698Z,100448.70
2023-02-19T00:20:43.417Z,100444.48
2023-02-19T00:23:14.170Z,100443.88
2023-02-19T00:25:44.947Z,100443.73
2023-02-19T00:28:15.826Z,100439.73
2023-02-19T00:30:46.634Z,100438.81
2023-02-19T00:33:17.291Z,100439.44
2023-02-19T00:35:47.972Z,100440.58
2023-02-19T00:38:18.609Z,100441.58
2023-02-19T00:40:49.335Z,100442.55
2023-02-19T00:43:19.951Z,100439.95
2023-02-19T00:45:50.604Z,100437.75
2023-02-19T00:48:21.251Z,100439.11
2023-02-19T00:50:51.958Z,100431.21
2023-02-19T00:53:22.648Z,100431.70
2023-02-19T00:55:53.358Z,100431.51
2023-02-19T00:58:24.078Z,100428.13
2023-02-19T01:00:55.150Z,100429.96
2023-02-19T01:03:24.257Z,100429.96
2023-02-19T01:05:54.989Z,100426.33
2023-02-19T01:08:25.711Z,100424.48
2023-02-19T01:10:56.452Z,100419.71
2023-02-19T01:13:28.056Z,100419.10
2023-02-19T01:16:06.701Z,100418.98
2023-02-19T01:18:37.406Z,100421.89
2023-02-19T01:21:11.628Z,100426.17
2023-02-19T01:23:42.976Z,100421.84
2023-02-19T01:26:17.087Z,100421.88
2023-02-19T01:28:48.489Z,100418.84
2023-02-19T01:31:21.064Z,100412.02
2023-02-19T01:33:53.503Z,100405.14
2023-02-19T01:36:24.920Z,100399.95
2023-02-19T01:38:55.603Z,100395.94
2023-02-19T01:41:27.036Z,100397.45
2023-02-19T01:44:04.311Z,100400.42
2023-02-19T01:46:36.444Z,100405.87
2023-02-19T01:49:10.710Z,100402.42
2023-02-19T01:51:45.259Z,100401.34
2023-02-19T01:54:19.978Z,100396.98
2023-02-19T01:56:51.282Z,100393.24
2023-02-19T01:59:22.229Z,100395.45
2023-02-19T02:01:53.064Z,100389.16
2023-02-19T02:04:23.819Z,100393.14
2023-02-19T02:06:56.435Z,100392.16
2023-02-19T02:09:29.436Z,100391.66
2023-02-19T02:12:00.115Z,100392.05
2023-02-19T02:14:38.035Z,100390.22
2023-02-19T02:17:20.620Z,100383.61
2023-02-19T02:20:07.733Z,100381.33
2023-02-19T02:22:42.675Z,100375.42
2023-02-19T02:25:32.100Z,100369.52
2023-02-19T02:28:21.764Z,100365.05
2023-02-19T02:30:56.485Z,100362.72
2023-02-19T02:33:32.835Z,100357.40
2023-02-19T02:36:10.835Z,100349.39
2023-02-19T02:38:45.166Z,100342.57
2023-02-19T02:41:17.031Z,100346.15
2023-02-19T02:43:47.861Z,100344.44
2023-02-19T02:46:23.283Z,100331.77
2023-02-19T02:48:56.472Z,100333.67
2023-02-19T02:51:30.900Z,100330.08
2023-02-19T02:54:05.416Z,100329.21
2023-02-19T02:56:36.604Z,100327.73
2023-02-19T02:59:09.955Z,100324.30
2023-02-19T03:01:46.677Z,100319.10
2023-02-19T03:04:24.595Z,100316.59
2023-02-19T03:06:57.630Z,100314.46
2023-02-19T03:09:32.772Z,100310.58
2023-02-19T03:12:05.668Z,100306.68
2023-02-19T03:14:42.661Z,100307.98
2023-02-19T03:17:22.003Z,100316.24
2023-02-19T03:19:56.072Z,100309.61
2023-02-19T03:22:29.835Z,100307.57
2023-02-19T03:25:04.098Z,100301.33
2023-02-19T03:27:37.984Z,100301.30
2023-02-19T03:30:16.816Z,100302.40
2023-02-19T03:32:52.289Z,100293.69
2023-02-19T03:35:27.441Z,100287.86
2023-02-19T03:38:04.772Z,100282.71
2023-02-19T03:40:41.941Z,100290.95
2023-02-19T03:43:19.604Z,100289.73
2023-02-19T03:45:58.558Z,100290.76
2023-02-19T03:48:34.135Z,100292.45
2023-02-19T03:51:18.110Z,100298.55
2023-02-19T03:54:00.941Z,100309.89
2023-02-19T03:56:37.228Z,100312.67
2023-02-19T03:59:14.374Z,100312.27
2023-02-19T04:01:48.960Z,100311.06
2023-02-19T04:04:25.202Z,100320.05
2023-02-19T04:06:57.473Z,100325.99
2023-02-19T04:09:33.553Z,100324.80
2023-02-19T04:12:05.113Z,100324.20
2023-02-19T04:14:39.844Z,100326.40
2023-02-19T04:17:18.205Z,100330.17
2023-02-19T04:19:51.432Z,100329.43
2023-02-19T04:22:24.538Z,100322.43
2023-02-19T04:24:55.879Z,100323.88
2023-02-19T04:27:26.542Z,100327.95
2023-02-19T04:29:57.173Z,100329.11
2023-02-19T04:32:28.001Z,100332.55
2023-02-19T04:34:58.612Z,100337.58
2023-02-19T04:37:29.316Z,100341.52
2023-02-19T04:40:00.167Z,100341.19
2023-02-19T04:42:31.354Z,100341.17
2023-02-19T04:45:02.388Z,100335.37
2023-02-19T04:47:34.738Z,100336.84
2023-02-19T04:50:06.314Z,100341.98
2023-02-19T04:52:44.505Z,100345.77
2023-02-19T04:55:15.213Z,100344.31
2023-02-19T04:57:45.868Z,100344.57
2023-02-19T05:00:18.182Z,100338.42
2023-02-19T05:02:48.879Z,100338.77
2023-02-19T05:05:19.611Z,100339.80
2023-02-19T05:07:50.761Z,100339.02
2023-02-19T05:10:21.414Z,100334.22
2023-02-19T05:12:52.091Z,100343.93
2023-02-19T05:15:22.707Z,100340.39
2023-02-19T05:17:53.330Z,100340.13
2023-02-19T05:20:23.983Z,100340.93
2023-02-19T05:22:54.746Z,100336.78
2023-02-19T05:25:25.548Z,100324.14
2023-02-19T05:27:56.185Z,100316.98
2023-02-19T05:30:26.888Z,100312.67
2023-02-19T05:32:57.897Z,100311.55
2023-02-19T05:35:28.522Z,100307.09
2023-02-19T05:37:59.156Z,100305.20
2023-02-19T05:40:29.767Z,100307.13
2023-02-19T05:43:00.502Z,100311.83
2023-02-19T05:45:31.571Z,100320.08
2023-02-19T05:48:02.963Z,100321.05
2023-02-19T05:50:35.164Z,100328.78
2023-02-19T05:53:06.713Z,100333.59
2023-02-19T05:55:37.539Z,100338.59
2023-02-19T05:58:08.282Z,100339.52
2023-02-19T06:00:38.932Z,100347.70
2023-02-19T06:03:09.602Z,100344.75
2023-02-19T06:05:40.259Z,100348.42
2023-02-19T06:08:12.724Z,100345.27
2023-02-19T06:10:43.698Z,100348.06
2023-02-19T06:13:16.842Z,100357.29
2023-02-19T06:15:48.409Z,100361.84
2023-02-19T06:18:19.081Z,100363.57
2023-02-19T06:20:49.849Z,100361.09
2023-02-19T06:23:20.571Z,100368.89
2023-02-19T06:25:51.234Z,100374.94
2023-02-19T06:28:21.970Z,100380.73
2023-02-19T06:30:52.610Z,100379.35
2023-02-19T06:33:23.268Z,100378.60
2023-02-19T06:35:53.920Z,100383.39
2023-02-19T06:38:24.930Z,100383.73
2023-02-19T06:40:55.510Z,100382.41
2023-02-19T06:43:26.276Z,100382.04
2023-02-19T06:45:59.909Z,100389.83
2023-02-19T06:48:31.302Z,100392.60
2023-02-19T06:51:02.041Z,100390.27
2023-02-19T06:53:33.043Z,100388.05
2023-02-19T06:56:06.447Z,100390.70
2023-02-19T06:58:37.529Z,100388.59
2023-02-19T07:01:06.722Z,100392.52
2023-02-19T07:03:37.461Z,100394.21
2023-02-19T07:06:10.363Z,100401.16
2023-02-19T07:08:41.265Z,100402.92
2023-02-19T07:11:12.094Z,100406.41
2023-02-19T07:13:42.895Z,100405.89
2023-02-19T07:16:14.584Z,100413.23
2023-02-19T07:18:45.229Z,100421.09
2023-02-19T07:21:17.962Z,100428.05
2023-02-19T07:23:48.667Z,100429.66
2023-02-19T07:26:21.001Z,100432.54
2023-02-19T07:28:52.786Z,100433.72
2023-02-19T07:31:25.016Z,100441.23
2023-02-19T07:33:56.399Z,100446.77
2023-02-19T07:36:27.042Z,100447.67
2023-02-19T07:38:58.627Z,100455.53
2023-02-19T07:41:29.273Z,100460.83
2023-02-19T07:43:59.983Z,100463.55
2023-02-19T07:46:30.604Z,100463.31
2023-02-19T07:49:01.440Z,100463.77
2023-02-19T07:51:32.664Z,100461.31
2023-02-19T07:54:03.645Z,100465.95
2023-02-19T07:56:34.266Z,100465.60
2023-02-19T07:59:04.983Z,100467.52
2023-02-19T08:01:35.679Z,100472.52
2023-02-19T08:04:06.743Z,100469.63
2023-02-19T08:06:35.834Z,100474.66
2023-02-19T08:09:06.891Z,100477.19
2023-02-19T08:11:35.930Z,100476.73
2023-02-19T08:14:06.643Z,100480.08
2023-02-19T08:16:43.292Z,100479.70
2023-02-19T08:19:14.226Z,100484.08
2023-02-19T08:21:45.024Z,100489.11
2023-02-19T08:24:15.680Z,100496.48
2023-02-19T08:26:46.497Z,100502.84
2023-02-19T08:29:17.240Z,100504.09
2023-02-19T08:31:48.184Z,100504.26
2023-02-19T08:34:18.924Z,100511.80
2023-02-19T08:36:49.698Z,100520.02
2023-02-19T08:39:21.243Z,100523.39
2023-02-19T08:41:52.040Z,100529.46
2023-02-19T08:44:22.956Z,100535.14
2023-02-19T08:46:53.586Z,100532.87
2023-02-19T08:49:27.729Z,100532.89
2023-02-19T08:51:58.441Z,100541.23
2023-02-19T08:54:29.096Z,100546.63
2023-02-19T08:56:59.865Z,100547.66
2023-02-19T08:59:31.617Z,100549.86
2023-02-19T09:02:02.252Z,100556.14
2023-02-19T09:04:33.262Z,100556.21
2023-02-19T09:07:04.752Z,100560.56
2023-02-19T09:09:36.807Z,100561.70
2023-02-19T09:12:11.153Z,100562.35
2023-02-19T09:14:41.893Z,100562.23
2023-02-19T09:17:12.797Z,100570.63
2023-02-19T09:19:43.533Z,100577.14
2023-02-19T09:22:14.233Z,100578.41
2023-02-19T09:24:45.930Z,100585.27
2023-02-19T09:27:19.444Z,100591.65
2023-02-19T09:29:50.169Z,100594.66
2023-02-19T09:32:20.874Z,100605.61
2023-02-19T09:34:51.559Z,100612.02
2023-02-19T09:37:26.849Z,100616.50
2023-02-19T09:39:57.535Z,100621.58
2023-02-19T09:42:32.266Z,100623.60
2023-02-19T09:45:04.895Z,100627.00
2023-02-19T09:47:35.972Z,100633.66
2023-02-19T09:53:14.415Z,100645.39
2023-02-19T09:55:45.830Z,100655.98
2023-02-19T09:58:25.918Z,100656.67
2023-02-19T10:00:58.849Z,100662.55
2023-02-19T10:03:32.409Z,100667.93
2023-02-19T10:06:10.884Z,100673.93
2023-02-19T10:08:45.252Z,100680.01
2023-02-19T10:11:16.401Z,100680.67
2023-02-19T10:13:50.906Z,100682.89
2023-02-19T10:16:25.419Z,100684.71
2023-02-19T10:18:56.262Z,100689.45
2023-02-19T10:21:27.910Z,100678.38
2023-02-19T10:24:02.561Z,100677.31
2023-02-19T10:26:33.606Z,100686.56
2023-02-19T10:29:03.066Z,100687.27
2023-02-19T10:31:34.903Z,100695.13
2023-02-19T10:34:16.751Z,100685.66
2023-02-19T10:36:49.930Z,100687.18
2023-02-19T10:39:42.314Z,100678.51
2023-02-19T10:42:23.159Z,100677.64
2023-02-19T10:44:56.529Z,100683.98
2023-02-19T10:47:30.498Z,100683.60
2023-02-19T10:50:04.368Z,100681.34
2023-02-19T10:52:36.346Z,100680.56
2023-02-19T10:55:26.248Z,100687.84
2023-02-19T10:57:57.533Z,100691.84
2023-02-19T11:00:30.541Z,100697.31
2023-02-19T11:03:22.394Z,100700.17
2023-02-19T11:06:05.144Z,100700.92
2023-02-19T11:08:47.441Z,100709.30
2023-02-19T11:11:43.902Z,100712.05
2023-02-19T11:14:18.943Z,100719.55
2023-02-19T11:16:51.603Z,100722.87
2023-02-19T11:19:34.301Z,100729.61
2023-02-19T11:22:21.042Z,100728.52
2023-02-19T11:24:56.675Z,100726.91
2023-02-19T11:27:28.559Z,100729.93
2023-02-19T11:30:39.160Z,100732.19
2023-02-19T11:33:27.904Z,100741.77
2023-02-19T11:36:30.311Z,100740.88
2023-02-19T11:39:19.516Z,100742.55
2023-02-19T11:42:17.104Z,100742.96
2023-02-19T11:44:56.955Z,100751.38
2023-02-19T11:47:58.192Z,100751.97
2023-02-19T11:50:38.584Z,100750.30
2023-02-19T11:53:21.407Z,100756.27
2023-02-19T11:56:12.342Z,100755.02
2023-02-19T11:59:00.946Z,100755.02
2023-02-19T12:01:44.288Z,100751.85
2023-02-19T12:04:56.445Z,100753.32
2023-02-19T12:07:49.070Z,100757.66
2023-02-19T12:10:33.271Z,100761.54
2023-02-19T12:13:14.489Z,100763.52
2023-02-19T12:18:59.002Z,100773.98
2023-02-19T12:21:43.921Z,100768.79
2023-02-19T12:24:38.353Z,100774.82
2023-02-19T12:27:24.658Z,100783.11
2023-02-19T12:30:20.115Z,100782.35
2023-02-19T12:33:06.678Z,100786.46
2023-02-19T12:35:58.653Z,100794.48
2023-02-19T12:38:35.203Z,100804.55
2023-02-19T12:41:27.357Z,100805.04
2023-02-19T12:44:01.566Z,100809.01
2023-02-19T12:46:36.472Z,100812.59
2023-02-19T12:49:14.223Z,100813.33
2023-02-19T12:51:48.682Z,100818.90
2023-02-19T12:54:25.035Z,100822.02
2023-02-19T12:57:00.630Z,100815.11
2023-02-19T12:59:38.742Z,100814.84
2023-02-19T13:02:16.293Z,100816.69
2023-02-19T13:04:55.199Z,100811.98
2023-02-19T13:07:30.869Z,100815.64
2023-02-19T13:10:32.833Z,100815.58
2023-02-19T13:13:07.223Z,100812.49
2023-02-19T13:15:41.726Z,100811.06
2023-02-19T13:18:18.329Z,100810.39
2023-02-19T13:20:50.955Z,100809.81
2023-02-19T13:23:29.018Z,100808.56
2023-02-19T13:26:22.434Z,100816.55
2023-02-19T13:29:05.193Z,100817.20
2023-02-19T13:31:55.187Z,100813.79
2023-02-19T13:34:40.231Z,100818.48
2023-02-19T13:37:11.938Z,100814.92
2023-02-19T13:39:49.463Z,100826.58
2023-02-19T13:42:32.762Z,100833.92
2023-02-19T13:45:05.143Z,100834.31
2023-02-19T13:47:50.373Z,100835.55
2023-02-19T13:50:23.793Z,100840.29
2023-02-19T13:52:54.885Z,100847.10
2023-02-19T13:55:41.639Z,100854.31
2023-02-19T13:58:36.571Z,100857.31
2023-02-19T14:01:07.899Z,100862.27
2023-02-19T14:04:07.022Z,100873.17
2023-02-19T14:07:23.492Z,100871.19
2023-02-19T14:09:54.780Z,100874.77
2023-02-19T14:12:33.639Z,100884.16
2023-02-19T14:15:50.512Z,100880.35
2023-02-19T14:18:49.509Z,100888.80
2023-02-19T14:21:27.922Z,100890.13
2023-02-19T14:23:59.911Z,100890.48
2023-02-19T14:26:34.054Z,100891.70
2023-02-19T14:29:09.155Z,100892.61
2023-02-19T14:31:50.349Z,100888.32
2023-02-19T14:34:25.961Z,100892.34
2023-02-19T14:37:01.160Z,100895.44
2023-02-19T14:39:35.824Z,100890.67
2023-02-19T14:42:42.155Z,100891.64
2023-02-19T14:45:10.954Z,100898.36
2023-02-19T14:47:46.503Z,100903.43
2023-02-19T14:50:25.608Z,100910.71
2023-02-19T14:52:59.858Z,100919.24
2023-02-19T14:55:40.821Z,100919.98
2023-02-19T14:58:30.271Z,100924.73
2023-02-19T15:01:01.367Z,100930.84
2023-02-19T15:03:34.456Z,100934.77
2023-02-19T15:06:11.263Z,100941.11
2023-02-19T15:08:47.139Z,100945.60
2023-02-19T15:11:21.704Z,100949.66
2023-02-19T15:13:58.601Z,100948.21
2023-02-19T15:16:31.265Z,100952.45
2023-02-19T15:19:06.147Z,100959.15
2023-02-19T15:21:44.839Z,100963.15
2023-02-19T15:24:17.659Z,100964.34
2023-02-19T15:26:52.214Z,100961.70
2023-02-19T15:29:27.250Z,100960.06
2023-02-19T15:31:59.582Z,100963.52
2023-02-19T15:34:32.634Z,100961.45
2023-02-19T15:37:05.833Z,100967.81
2023-02-19T15:39:39.496Z,100970.42
2023-02-19T15:42:16.528Z,100966.89
2023-02-19T15:44:52.232Z,100971.69
2023-02-19T15:47:29.677Z,100969.95
2023-02-19T15:50:05.525Z,100972.86
2023-02-19T15:52:44.919Z,100976.02
2023-02-19T15:55:28.537Z,100984.41
2023-02-19T15:58:06.797Z,100985.02
2023-02-19T16:00:44.896Z,100995.80
2023-02-19T16:03:20.252Z,100993.85
2023-02-19T16:06:01.826Z,101001.98
2023-02-19T16:08:34.662Z,100999.98
2023-02-19T16:11:19.036Z,101008.59
2023-02-19T16:13:50.224Z,101010.94
2023-02-19T16:16:24.146Z,101013.77
2023-02-19T16:19:06.405Z,101008.73
2023-02-19T16:21:37.266Z,101012.08
2023-02-19T16:24:13.913Z,101017.11
2023-02-19T16:26:46.019Z,101022.70
2023-02-19T16:29:21.881Z,101033.14
2023-02-19T16:31:55.201Z,101036.98
2023-02-19T16:34:42.852Z,101046.54
2023-02-19T16:37:37.482Z,101053.82
2023-02-19T16:40:50.772Z,101055.91
2023-02-19T16:43:30.295Z,101060.31
2023-02-19T16:46:01.875Z,101067.79
2023-02-19T16:48:37.449Z,101071.81
2023-02-19T16:51:07.790Z,101080.08
2023-02-19T16:53:38.656Z,101075.30
2023-02-19T16:56:15.884Z,101078.27
2023-02-19T16:58:46.744Z,101089.23
2023-02-19T17:01:19.095Z,101094.48
2023-02-19T17:03:51.274Z,101094.91
2023-02-19T17:06:21.979Z,101098.27
2023-02-19T17:08:53.692Z,101101.85
2023-02-19T17:11:58.005Z,101109.73
2023-02-19T17:14:31.415Z,101103.42
2023-02-19T17:17:03.655Z,101120.52
2023-02-19T17:19:36.286Z,101125.21
2023-02-19T17:22:14.379Z,101130.92
2023-02-19T17:24:45.094Z,101140.75
2023-02-19T17:27:15.946Z,101145.64
2023-02-19T17:29:46.666Z,101149.95
2023-02-19T17:32:17.465Z,101152.44
2023-02-19T17:34:48.301Z,101156.16
2023-02-19T17:37:18.934Z,101159.77
2023-02-19T17:39:50.641Z,101159.46
2023-02-19T17:42:21.833Z,101159.43
2023-02-19T17:44:52.706Z,101160.81
2023-02-19T17:47:23.719Z,101159.42
2023-02-19T17:49:54.391Z,101164.42
2023-02-19T17:52:26.678Z,101170.50
2023-02-19T17:54:57.608Z,101170.52
2023-02-19T17:57:52.630Z,101174.02
2023-02-19T18:00:37.958Z,101171.30
2023-02-19T18:03:13.009Z,101176.09
2023-02-19T18:05:45.667Z,101180.88
2023-02-19T18:08:16.326Z,101184.08
2023-02-19T18:10:49.829Z,101186.91
2023-02-19T18:13:20.628Z,101185.59
2023-02-19T18:16:22.912Z,101196.21
2023-02-19T18:18:43.869Z,101200.52
2023-02-19T18:21:13.917Z,101215.00
2023-02-19T18:23:46.535Z,101215.38
2023-02-19T18:26:21.582Z,101218.91
2023-02-19T18:28:57.861Z,101215.39
2023-02-19T18:31:31.770Z,101219.02
2023-02-19T18:34:02.580Z,101222.63
2023-02-19T18:37:00.247Z,101220.79
2023-02-19T18:39:46.014Z,101218.55
2023-02-19T18:42:17.201Z,101218.55
2023-02-19T18:44:50.757Z,101215.27
2023-02-19T18:47:23.071Z,101209.32
2023-02-19T18:49:55.507Z,101207.66
2023-02-19T18:52:27.396Z,101207.94
2023-02-19T18:54:58.395Z,101210.09
2023-02-19T18:57:27.689Z,101215.07
2023-02-19T19:00:23.967Z,101220.59
2023-02-19T19:02:54.368Z,101220.68
2023-02-19T19:05:33.272Z,101218.17
2023-02-19T19:08:09.808Z,101212.69
2023-02-19T19:10:40.402Z,101216.18
2023-02-19T19:13:13.633Z,101221.65
2023-02-19T19:15:49.244Z,101223.03
2023-02-19T19:18:20.213Z,101228.99
2023-02-19T19:20:50.841Z,101226.90
2023-02-19T19:23:26.073Z,101223.36
2023-02-19T19:25:58.962Z,101223.83
2023-02-19T19:28:30.640Z,101225.60
2023-02-19T19:31:01.413Z,101228.83
2023-02-19T19:33:32.159Z,101233.85
2023-02-19T19:36:21.910Z,101236.85
2023-02-19T19:38:52.766Z,101243.56
2023-02-19T19:41:27.671Z,101246.66
2023-02-19T19:44:01.814Z,101244.20
2023-02-19T19:46:32.871Z,101243.66
2023-02-19T19:49:21.993Z,101237.77
2023-02-19T19:51:53.960Z,101239.33
2023-02-19T19:54:28.213Z,101232.98
2023-02-19T19:56:59.166Z,101234.55
2023-02-19T19:59:38.254Z,101229.18
2023-02-19T20:02:18.270Z,101233.25
2023-02-19T20:05:12.106Z,101235.30
2023-02-19T20:07:39.136Z,101236.36
2023-02-19T20:10:19.099Z,101238.28
2023-02-19T20:12:51.337Z,101240.41
2023-02-19T20:15:24.061Z,101241.27
2023-02-19T20:17:54.991Z,101245.34
2023-02-19T20:20:25.880Z,101244.05
2023-02-19T20:22:56.566Z,101247.54
2023-02-19T20:25:27.550Z,101255.67
2023-02-19T20:27:58.410Z,101261.98
2023-02-19T20:30:38.276Z,101261.45
2023-02-19T20:33:09.032Z,101270.39
2023-02-19T20:35:39.956Z,101275.19
2023-02-19T20:38:14.108Z,101278.77
2023-02-19T20:40:44.957Z,101277.17
2023-02-19T20:43:16.270Z,101276.77
2023-02-19T20:45:47.081Z,101276.48
2023-02-19T20:48:18.600Z,101273.07
2023-02-19T20:50:49.405Z,101276.86
2023-02-19T20:53:20.155Z,101271.41
2023-02-19T20:55:50.827Z,101279.44
2023-02-19T20:58:21.586Z,101282.75
2023-02-19T21:00:52.502Z,101286.70
2023-02-19T21:03:23.611Z,101287.98
2023-02-19T21:05:54.266Z,101295.47
2023-02-19T21:08:24.893Z,101293.61
2023-02-19T21:10:55.606Z,101299.77
2023-02-19T21:13:27.283Z,101298.00
2023-02-19T21:15:59.237Z,101299.13
2023-02-19T21:18:32.162Z,101302.45
2023-02-19T21:21:02.888Z,101302.80
2023-02-19T21:23:33.618Z,101310.92
2023-02-19T21:26:27.785Z,101311.39
2023-02-19T21:28:58.384Z,101319.14
2023-02-19T21:31:37.720Z,101319.62
2023-02-19T21:34:19.441Z,101313.70
2023-02-19T21:37:10.712Z,101315.58
2023-02-19T21:39:39.854Z,101311.73
2023-02-19T21:42:13.156Z,101314.23
2023-02-19T21:44:43.785Z,101311.04
2023-02-19T21:47:14.506Z,101301.54
2023-02-19T21:49:45.222Z,101297.75
2023-02-19T21:52:16.007Z,101294.98
2023-02-19T21:54:46.857Z,101294.75
2023-02-19T21:57:17.545Z,101295.96
2023-02-19T21:59:48.155Z,101296.11
2023-02-19T22:02:18.961Z,101288.48
2023-02-19T22:04:55.701Z,101284.71
2023-02-19T22:07:26.429Z,101277.13
2023-02-19T22:09:57.044Z,101283.05
2023-02-19T22:12:27.769Z,101285.95
2023-02-19T22:15:01.601Z,101286.44
2023-02-19T22:17:32.232Z,101282.30
2023-02-19T22:20:03.201Z,101288.55
2023-02-19T22:22:35.360Z,101283.48
2023-02-19T22:25:06.675Z,101282.15
2023-02-19T22:27:43.080Z,101280.48
2023-02-19T22:30:15.894Z,101281.44
2023-02-19T22:32:48.848Z,101278.44
2023-02-19T22:35:19.819Z,101280.69
2023-02-19T22:37:50.566Z,101281.94
2023-02-19T22:40:21.322Z,101278.36
2023-02-19T22:42:54.637Z,101273.17
2023-02-19T22:45:25.254Z,101275.25
2023-02-19T22:47:56.952Z,101276.34
2023-02-19T22:50:27.530Z,101274.72
2023-02-19T22:52:58.291Z,101274.80
2023-02-19T22:55:28.921Z,101274.02
2023-02-19T22:57:59.606Z,101269.70
2023-02-19T23:00:30.288Z,101268.86
2023-02-19T23:03:01.275Z,101264.96
2023-02-19T23:05:30.506Z,101259.25
2023-02-19T23:08:01.247Z,101246.84
2023-02-19T23:10:31.915Z,101241.55
2023-02-19T23:13:02.582Z,101241.07
2023-02-19T23:15:33.721Z,101244.23
2023-02-19T23:18:02.906Z,101252.46
2023-02-19T23:20:33.637Z,101254.43
2023-02-19T23:23:04.339Z,101251.48
2023-02-19T23:25:35.145Z,101249.70
2023-02-19T23:28:06.169Z,101242.54
2023-02-19T23:30:35.334Z,101244.25
2023-02-19T23:33:06.113Z,101245.23
2023-02-19T23:35:36.749Z,101236.86
2023-02-19T23:38:07.441Z,101239.75
2023-02-19T23:40:38.401Z,101237.02
2023-02-19T23:43:09.088Z,101238.38
2023-02-19T23:45:39.685Z,101247.16
2023-02-19T23:48:10.352Z,101245.69
2023-02-19T23:50:41.007Z,101250.19
2023-02-19T23:53:11.746Z,101245.21
2023-02-19T23:55:42.541Z,101239.60
2023-02-19T23:58:13.853Z,101231.14
